Time;durP1;ratioP1;P1;durP2;ratioP2;P2;SDS_P1;SDS_P2;PMS_P1;PMS_P2;Temp;Humidity;BMP_temperature;BMP_pressure;BME280_temperature;BME280_humidity;BME280_pressure;Samples;Min_cycle;Max_cycle;Signal;HPM_P1;HPM_P2
2022/10/14 00:00:42;;;;;;;24.27;15.63;;;;;;;9.56;100.00;96428.88;6132220;23;20479;-79
2022/10/14 00:03:09;;;;;;;23.30;16.80;;;;;;;9.53;100.00;96437.44;6181438;23;20726;-78
2022/10/14 00:05:39;;;;;;;27.07;19.10;;;;;;;9.29;100.00;96400.25;6159010;23;20483;-78
2022/10/14 00:08:07;;;;;;;28.23;20.60;;;;;;;9.63;100.00;96446.88;6158489;23;20431;-79
2022/10/14 00:10:38;;;;;;;25.00;18.57;;;;;;;9.43;100.00;96421.94;6181424;23;20483;-79
2022/10/14 00:13:05;;;;;;;25.57;17.37;;;;;;;9.52;100.00;96441.16;6156257;23;20455;-78
2022/10/14 00:15:39;;;;;;;18.10;15.70;;;;;;;9.50;100.00;96437.28;6181762;23;20406;-78
2022/10/14 00:18:08;;;;;;;19.17;15.03;;;;;;;9.17;100.00;96393.00;6156460;23;20408;-79
2022/10/14 00:20:35;;;;;;;20.70;14.70;;;;;;;8.99;100.00;96373.81;6156383;23;20807;-78
2022/10/14 00:23:02;;;;;;;21.57;17.57;;;;;;;9.41;100.00;96435.44;6158343;23;20475;-79
2022/10/14 00:25:29;;;;;;;23.90;17.00;;;;;;;9.26;100.00;96424.63;6156155;23;20396;-79
2022/10/14 00:27:56;;;;;;;21.60;18.17;;;;;;;9.16;100.00;96417.81;6181502;23;20418;-79
2022/10/14 00:30:22;;;;;;;26.50;17.03;;;;;;;9.28;100.00;96427.72;6156276;23;20415;-78
2022/10/14 00:32:49;;;;;;;25.73;17.87;;;;;;;9.36;100.00;96450.69;6156139;23;20466;-79
2022/10/14 00:35:16;;;;;;;18.00;15.90;;;;;;;9.00;100.00;96387.78;6181188;23;20432;-79
2022/10/14 00:37:43;;;;;;;24.80;17.70;;;;;;;9.30;100.00;96439.50;6158102;23;20392;-78
2022/10/14 00:40:10;;;;;;;23.00;15.77;;;;;;;8.89;100.00;96361.72;6181323;23;20412;-79
2022/10/14 00:42:37;;;;;;;18.43;16.40;;;;;;;9.25;100.00;96418.59;6156825;23;20408;-78
2022/10/14 00:45:12;;;;;;;19.20;16.53;;;;;;;9.50;100.00;96440.69;6180804;23;20837;-79
2022/10/14 00:47:40;;;;;;;17.83;14.57;;;;;;;9.48;100.00;96440.22;6155652;23;20964;-78
2022/10/14 00:50:09;;;;;;;21.80;14.73;;;;;;;9.50;100.00;96437.28;6156037;23;20495;-78
2022/10/14 00:52:36;;;;;;;22.80;16.93;;;;;;;9.13;100.00;96384.16;6156385;23;20436;-78
2022/10/14 00:55:09;;;;;;;24.97;18.00;;;;;;;9.34;100.00;96411.41;6180570;23;20450;-79
2022/10/14 00:57:37;;;;;;;29.93;19.97;;;;;;;9.53;100.00;96439.28;6181139;23;20472;-79
2022/10/14 01:00:15;;;;;;;23.03;17.97;;;;;;;9.17;100.00;96380.56;6156646;23;20432;-79
2022/10/14 01:02:41;;;;;;;24.43;18.10;;;;;;;9.47;100.00;96441.31;6180932;23;20376;-79
2022/10/14 01:05:12;;;;;;;21.97;15.70;;;;;;;9.45;100.00;96444.28;6181103;23;20399;-79
2022/10/14 01:07:54;;;;;;;19.57;15.17;;;;;;;9.40;100.00;96439.19;6156642;23;20779;-79
2022/10/14 01:10:30;;;;;;;23.87;17.10;;;;;;;9.42;100.00;96438.84;6180748;23;20455;-79
2022/10/14 01:13:28;;;;;;;21.00;15.47;;;;;;;9.39;100.00;96436.84;6180809;23;20459;-79
2022/10/14 01:16:34;;;;;;;21.53;15.60;;;;;;;9.39;100.00;96440.28;6180391;23;20458;-79
2022/10/14 01:19:13;;;;;;;24.90;15.57;;;;;;;9.38;100.00;96438.72;6180713;23;20454;-79
2022/10/14 01:21:52;;;;;;;20.13;16.13;;;;;;;9.38;100.00;96436.09;6155718;23;20432;-79
2022/10/14 01:24:42;;;;;;;22.33;18.73;;;;;;;9.40;100.00;96433.91;6155984;23;20873;-79
2022/10/14 01:27:20;;;;;;;27.90;18.40;;;;;;;9.32;100.00;96412.81;6158055;23;20373;-79
2022/10/14 01:30:05;;;;;;;34.77;20.80;;;;;;;9.46;100.00;96434.50;6156269;23;20919;-79
2022/10/14 01:33:00;;;;;;;36.07;21.43;;;;;;;9.50;100.00;96434.66;6155907;23;20762;-79
2022/10/14 01:35:42;;;;;;;34.10;19.70;;;;;;;9.34;100.00;96407.97;6156093;23;20432;-79
2022/10/14 01:38:18;;;;;;;23.57;17.97;;;;;;;9.30;100.00;96409.72;6180531;23;20512;-79
2022/10/14 01:40:48;;;;;;;27.60;18.67;;;;;;;9.09;100.00;96376.13;6156103;23;20929;-79
2022/10/14 01:43:18;;;;;;;26.47;18.70;;;;;;;9.24;100.00;96400.44;6156538;23;20443;-79
2022/10/14 01:45:48;;;;;;;23.57;17.50;;;;;;;9.44;100.00;96432.16;6156688;23;20798;-79
2022/10/14 01:48:18;;;;;;;18.67;15.33;;;;;;;9.33;100.00;96415.13;6157871;23;20384;-79
2022/10/14 01:50:48;;;;;;;17.23;15.37;;;;;;;9.43;100.00;96422.72;6156843;23;20503;-79
2022/10/14 01:53:25;;;;;;;17.57;15.00;;;;;;;9.51;100.00;96436.19;6181298;23;21261;-79
2022/10/14 01:55:55;;;;;;;18.83;16.10;;;;;;;9.52;100.00;96440.38;6181779;23;20434;-79
2022/10/14 01:58:26;;;;;;;16.57;14.87;;;;;;;9.26;100.00;96396.38;6181001;23;20415;-79
2022/10/14 02:00:53;;;;;;;18.40;16.43;;;;;;;9.26;100.00;96391.09;6180190;23;20970;-79
2022/10/14 02:03:20;;;;;;;21.10;16.00;;;;;;;9.14;100.00;96370.66;6180985;23;20439;-79
2022/10/14 02:05:59;;;;;;;18.80;14.60;;;;;;;9.27;100.00;96390.00;6181040;23;20454;-79
2022/10/14 02:08:55;;;;;;;15.93;13.90;;;;;;;9.31;100.00;96406.75;6155310;23;20890;-79
2022/10/14 02:11:22;;;;;;;20.37;15.10;;;;;;;9.39;100.00;96413.88;6180167;23;20435;-79
2022/10/14 02:14:01;;;;;;;19.23;15.30;;;;;;;9.42;100.00;96413.25;6180560;23;20755;-79
2022/10/14 02:16:42;;;;;;;18.10;14.40;;;;;;;9.42;100.00;96407.97;6180459;23;20409;-79
2022/10/14 02:19:24;;;;;;;18.30;15.10;;;;;;;9.48;100.00;96414.63;6180387;23;20526;-79
2022/10/14 02:22:15;;;;;;;20.10;15.27;;;;;;;9.53;100.00;96404.97;6181080;23;20379;-79
2022/10/14 02:24:48;;;;;;;18.13;14.03;;;;;;;9.39;100.00;96390.13;6155714;23;20414;-79
2022/10/14 02:27:19;;;;;;;17.63;14.27;;;;;;;9.24;100.00;96371.41;6180726;23;20827;-79
2022/10/14 02:29:48;;;;;;;14.07;12.47;;;;;;;9.26;100.00;96363.94;6155812;23;20807;-79
2022/10/14 02:32:19;;;;;;;17.37;13.67;;;;;;;9.44;100.00;96400.50;6180428;23;20463;-79
2022/10/14 02:34:53;;;;;;;18.40;13.43;;;;;;;9.40;100.00;96393.53;6180634;23;20467;-78
2022/10/14 02:37:22;;;;;;;17.57;14.63;;;;;;;9.61;100.00;96427.91;6180213;23;20402;-78
2022/10/14 02:40:08;;;;;;;17.37;14.67;;;;;;;9.39;100.00;96392.00;6155895;23;20424;-79
2022/10/14 02:42:35;;;;;;;17.33;15.43;;;;;;;9.35;100.00;96386.59;6180752;23;20400;-78
2022/10/14 02:45:04;;;;;;;18.50;14.80;;;;;;;9.58;100.00;96420.63;6155352;23;20407;-79
2022/10/14 02:47:31;;;;;;;25.23;14.73;;;;;;;9.28;100.00;96372.31;6155690;23;20446;-79
2022/10/14 02:49:57;;;;;;;18.80;16.13;;;;;;;9.08;100.00;96355.31;6156656;23;20746;-78
2022/10/14 02:52:24;;;;;;;21.33;15.53;;;;;;;9.22;100.00;96382.28;6182036;23;20510;-79
2022/10/14 02:54:52;;;;;;;26.67;16.57;;;;;;;9.31;100.00;96395.44;6155158;23;20916;-79
2022/10/14 02:57:18;;;;;;;20.27;14.50;;;;;;;9.40;100.00;96409.38;6179975;23;20427;-78
2022/10/14 02:59:47;;;;;;;19.43;14.60;;;;;;;9.08;100.00;96350.03;6180098;23;20766;-79
2022/10/14 03:02:13;;;;;;;22.20;15.57;;;;;;;9.29;100.00;96371.22;6179647;23;20475;-79
2022/10/14 03:04:40;;;;;;;21.13;17.03;;;;;;;9.37;100.00;96383.63;6179628;23;20407;-79
2022/10/14 03:07:08;;;;;;;20.23;14.23;;;;;;;9.08;100.00;96326.28;6179785;23;20447;-79
2022/10/14 03:09:40;;;;;;;20.70;16.40;;;;;;;9.31;100.00;96359.25;6132248;23;20561;-79
2022/10/14 03:12:08;;;;;;;21.53;17.00;;;;;;;9.02;100.00;96309.09;6180891;23;20442;-79
2022/10/14 03:14:35;;;;;;;22.53;15.20;;;;;;;9.32;100.00;96350.25;6182237;23;20770;-79
2022/10/14 03:17:02;;;;;;;17.33;15.43;;;;;;;9.53;100.00;96386.50;6182125;23;20422;-78
2022/10/14 03:19:31;;;;;;;17.10;14.10;;;;;;;9.25;100.00;96341.31;6180855;23;20438;-78
2022/10/14 03:21:58;;;;;;;17.13;14.53;;;;;;;9.31;100.00;96354.00;6181466;23;20400;-78
2022/10/14 03:24:25;;;;;;;25.80;17.13;;;;;;;9.41;100.00;96382.66;6156463;23;20490;-78
2022/10/14 03:27:10;;;;;;;21.90;15.00;;;;;;;9.23;100.00;96354.03;6177930;23;20919;-78
2022/10/14 03:29:37;;;;;;;18.03;15.30;;;;;;;9.24;100.00;96358.22;6180639;23;20899;-78
2022/10/14 03:32:12;;;;;;;20.20;15.70;;;;;;;9.21;100.00;96362.25;6181347;23;20462;-78
2022/10/14 03:34:57;;;;;;;21.87;16.20;;;;;;;9.23;100.00;96361.94;6177800;23;20418;-78
2022/10/14 03:37:24;;;;;;;19.20;15.00;;;;;;;7.90;100.00;96173.16;6181238;23;20503;-78
2022/10/14 03:39:54;;;;;;;19.93;15.83;;;;;;;8.98;100.00;96335.34;6181650;23;20517;-78
2022/10/14 03:42:20;;;;;;;17.77;15.33;;;;;;;9.33;100.00;96383.47;6181739;23;20419;-78
2022/10/14 03:44:48;;;;;;;20.23;15.17;;;;;;;9.21;100.00;96354.34;6181820;23;20436;-78
2022/10/14 03:47:26;;;;;;;20.10;15.77;;;;;;;9.13;100.00;96331.41;6182322;23;20558;-78
2022/10/14 03:49:53;;;;;;;21.10;14.93;;;;;;;9.33;100.00;96351.03;6157591;23;20426;-78
2022/10/14 03:52:25;;;;;;;17.03;14.30;;;;;;;8.63;100.00;96242.41;6157971;23;20902;-78
2022/10/14 03:55:04;;;;;;;17.63;15.17;;;;;;;9.02;100.00;96301.19;6157432;23;20531;-78
2022/10/14 03:57:31;;;;;;;18.10;15.60;;;;;;;9.49;100.00;96378.47;6159307;23;20407;-78
2022/10/14 03:59:59;;;;;;;16.00;14.30;;;;;;;9.21;100.00;96338.50;6183443;23;20890;-78
2022/10/14 04:02:39;;;;;;;19.20;15.10;;;;;;;9.47;100.00;96370.84;6180989;23;20368;-78
2022/10/14 04:05:10;;;;;;;18.47;15.27;;;;;;;9.17;100.00;96333.09;6134611;23;20884;-78
2022/10/14 04:07:38;;;;;;;16.80;14.07;;;;;;;8.93;100.00;96298.59;6183899;23;20408;-79
2022/10/14 04:10:05;;;;;;;15.97;14.10;;;;;;;9.17;100.00;96345.50;6158644;23;20846;-78
2022/10/14 04:12:33;;;;;;;19.23;16.70;;;;;;;9.18;100.00;96358.38;6183294;23;20486;-78
2022/10/14 04:15:07;;;;;;;17.67;14.50;;;;;;;9.27;100.00;96349.66;6183551;23;20480;-78
2022/10/14 04:17:48;;;;;;;21.23;16.20;;;;;;;8.68;100.00;96273.88;6183257;23;20866;-78
2022/10/14 04:20:16;;;;;;;22.10;16.40;;;;;;;9.10;100.00;96342.59;6157713;23;20420;-78
2022/10/14 04:22:43;;;;;;;24.33;17.37;;;;;;;9.16;100.00;96343.97;6183016;23;20490;-78
2022/10/14 04:25:12;;;;;;;23.03;17.83;;;;;;;8.68;100.00;96267.81;6182695;23;20411;-79
2022/10/14 04:27:39;;;;;;;16.93;15.03;;;;;;;8.99;100.00;96304.47;6158381;23;20407;-78
2022/10/14 04:30:08;;;;;;;24.63;19.43;;;;;;;8.78;100.00;96268.25;6184371;23;20769;-78
2022/10/14 04:32:45;;;;;;;23.03;18.60;;;;;;;9.11;100.00;96323.81;6181545;23;20427;-78
2022/10/14 04:35:11;;;;;;;29.80;19.80;;;;;;;9.14;100.00;96323.19;6182877;23;20415;-79
2022/10/14 04:37:42;;;;;;;25.23;19.50;;;;;;;9.04;100.00;96312.19;6183423;23;20396;-79
2022/10/14 04:40:19;;;;;;;24.73;20.60;;;;;;;9.10;100.00;96316.22;6158448;23;20419;-79
2022/10/14 04:42:46;;;;;;;27.60;20.60;;;;;;;9.18;100.00;96334.63;6158348;23;20403;-78
2022/10/14 04:45:20;;;;;;;22.23;18.67;;;;;;;9.01;100.00;96304.94;6183491;23;20435;-79
2022/10/14 04:47:53;;;;;;;24.90;18.57;;;;;;;8.88;100.00;96289.00;6182995;23;20392;-79
2022/10/14 04:50:22;;;;;;;21.50;16.97;;;;;;;9.27;100.00;96337.25;6185932;23;20454;-79
2022/10/14 04:53:08;;;;;;;24.03;17.83;;;;;;;9.13;100.00;96310.31;6159421;23;20446;-79
2022/10/14 04:55:50;;;;;;;22.77;16.00;;;;;;;9.23;100.00;96317.88;6159505;23;20416;-79
2022/10/14 04:58:17;;;;;;;19.83;15.50;;;;;;;9.00;100.00;96282.28;6185930;23;20802;-78
2022/10/14 05:00:45;;;;;;;22.90;19.13;;;;;;;8.74;100.00;96246.25;6160342;23;20434;-79
2022/10/14 05:03:32;;;;;;;21.03;14.63;;;;;;;9.25;100.00;96322.84;6161903;23;20949;-80
2022/10/14 05:05:59;;;;;;;19.63;16.60;;;;;;;8.97;100.00;96281.06;6135963;23;20400;-80
2022/10/14 05:08:26;;;;;;;25.73;16.63;;;;;;;9.11;100.00;96304.59;6184295;23;20508;-79
2022/10/14 05:10:58;;;;;;;20.00;16.07;;;;;;;9.32;100.00;96328.38;6188966;23;20440;-81
2022/10/14 05:13:49;;;;;;;17.60;13.83;;;;;;;9.16;100.00;96312.31;6155203;23;20409;-81
2022/10/14 05:16:16;;;;;;;18.87;15.70;;;;;;;9.17;100.00;96319.13;6180002;23;20882;-81
2022/10/14 05:18:43;;;;;;;21.80;17.43;;;;;;;8.88;100.00;96280.31;6179493;23;20918;-81
2022/10/14 05:21:12;;;;;;;21.10;15.90;;;;;;;8.94;100.00;96280.91;6179266;23;20414;-81
2022/10/14 05:23:47;;;;;;;23.17;17.47;;;;;;;8.67;100.00;96237.25;6154847;23;20470;-81
2022/10/14 05:26:14;;;;;;;22.90;16.30;;;;;;;9.02;100.00;96301.19;6179689;23;20454;-81
2022/10/14 05:28:41;;;;;;;23.20;17.97;;;;;;;8.98;100.00;96281.84;6179887;23;20424;-81
2022/10/14 05:31:08;;;;;;;21.50;16.00;;;;;;;9.27;100.00;96320.66;6157554;23;20435;-81
2022/10/14 05:33:43;;;;;;;22.23;15.17;;;;;;;8.10;100.00;96148.78;6155503;23;20451;-81
2022/10/14 05:36:10;;;;;;;24.20;15.03;;;;;;;9.04;100.00;96285.81;6157848;23;20411;-81
2022/10/14 05:38:37;;;;;;;20.63;15.93;;;;;;;8.78;100.00;96241.88;6180014;23;21162;-81
2022/10/14 05:41:04;;;;;;;19.33;15.33;;;;;;;9.17;100.00;96305.94;6155817;23;20399;-81
2022/10/14 05:43:31;;;;;;;19.97;15.57;;;;;;;9.16;100.00;96305.16;6180912;23;20396;-81
2022/10/14 05:46:01;;;;;;;20.70;16.57;;;;;;;9.26;100.00;96330.44;6180956;23;20412;-81
2022/10/14 05:48:32;;;;;;;18.60;16.67;;;;;;;9.03;100.00;96315.94;6156372;23;20388;-81
2022/10/14 05:51:01;;;;;;;23.03;18.87;;;;;;;8.88;100.00;96304.81;6155832;23;20392;-81
2022/10/14 05:53:31;;;;;;;19.07;16.10;;;;;;;9.16;100.00;96330.78;6180899;23;20475;-81
2022/10/14 05:56:08;;;;;;;20.97;16.20;;;;;;;8.96;100.00;96310.38;6156321;23;20410;-80
2022/10/14 05:58:37;;;;;;;23.53;17.83;;;;;;;8.71;100.00;96246.88;6179628;23;20490;-81
2022/10/14 06:01:07;;;;;;;17.77;15.63;;;;;;;9.02;100.00;96301.97;6178936;23;20400;-81
2022/10/14 06:03:37;;;;;;;21.70;16.20;;;;;;;8.69;100.00;96248.28;6179233;23;20400;-81
2022/10/14 06:06:04;;;;;;;20.97;15.67;;;;;;;9.28;100.00;96327.47;6179575;23;20404;-80
2022/10/14 06:08:31;;;;;;;21.87;15.10;;;;;;;8.99;100.00;96281.50;6179379;23;20442;-81
2022/10/14 06:11:02;;;;;;;27.03;17.00;;;;;;;9.43;100.00;96340.13;6179885;23;20431;-81
2022/10/14 06:13:29;;;;;;;22.57;17.00;;;;;;;9.04;100.00;96285.81;6179465;23;20969;-81
2022/10/14 06:15:56;;;;;;;21.77;17.20;;;;;;;9.23;100.00;96296.00;6154607;23;20430;-81
2022/10/14 06:18:22;;;;;;;20.90;17.03;;;;;;;9.11;100.00;96289.53;6178767;23;20414;-81
2022/10/14 06:20:53;;;;;;;20.07;15.80;;;;;;;9.56;100.00;96348.91;6154967;23;20407;-81
2022/10/14 06:23:20;;;;;;;20.43;16.80;;;;;;;9.41;100.00;96327.25;6154767;23;20791;-81
2022/10/14 06:25:46;;;;;;;37.10;26.67;;;;;;;9.49;100.00;96328.31;6179777;23;20386;-81
2022/10/14 06:28:13;;;;;;;33.07;21.60;;;;;;;9.42;100.00;96315.59;6154151;23;20478;-81
2022/10/14 06:30:40;;;;;;;31.30;25.27;;;;;;;9.53;100.00;96331.09;6179787;23;20564;-81
2022/10/14 06:33:06;;;;;;;27.63;24.47;;;;;;;9.26;100.00;96272.38;6156166;23;20408;-81
2022/10/14 06:35:33;;;;;;;32.33;25.90;;;;;;;9.51;100.00;96306.88;6185875;23;20407;-81
2022/10/14 06:38:00;;;;;;;30.87;25.67;;;;;;;9.90;100.00;96361.16;6162894;23;20412;-81
2022/10/14 06:40:26;;;;;;;26.73;22.73;;;;;;;9.99;100.00;96348.66;6165165;23;20404;-81
2022/10/14 06:42:53;;;;;;;27.20;21.23;;;;;;;10.01;100.00;96357.78;6195209;23;20387;-81
2022/10/14 06:45:20;;;;;;;23.33;17.87;;;;;;;10.22;100.00;96386.91;6171221;23;20412;-81
2022/10/14 06:47:47;;;;;;;27.73;17.50;;;;;;;9.97;100.00;96342.91;6173979;23;20406;-81
2022/10/14 06:50:14;;;;;;;23.90;19.10;;;;;;;10.24;100.00;96370.72;6191155;23;20447;-81
2022/10/14 06:52:40;;;;;;;22.80;18.50;;;;;;;9.20;100.00;96218.25;6160757;23;20404;-81
2022/10/14 06:55:07;;;;;;;22.23;19.80;;;;;;;10.13;100.00;96362.38;6187167;23;20455;-81
2022/10/14 06:57:34;;;;;;;27.83;21.80;;;;;;;10.13;100.00;96370.31;6188027;23;20430;-81
2022/10/14 07:00:02;;;;;;;29.37;20.70;;;;;;;10.28;100.00;96390.13;6186787;23;20438;-81
2022/10/14 07:02:36;;;;;;;24.40;21.27;;;;;;;10.02;100.00;96351.44;6139060;23;20423;-81
2022/10/14 07:05:04;;;;;;;25.87;19.43;;;;;;;10.38;100.00;96392.38;6163267;23;20442;-81
2022/10/14 07:07:31;;;;;;;29.33;21.10;;;;;;;10.29;100.00;96381.91;6187991;23;20838;-80
2022/10/14 07:09:58;;;;;;;28.70;20.47;;;;;;;10.11;100.00;96351.38;6189189;23;20447;-80
2022/10/14 07:12:25;;;;;;;31.13;21.10;;;;;;;10.41;100.00;96394.38;6187755;23;20882;-81
2022/10/14 07:14:51;;;;;;;28.37;19.00;;;;;;;10.14;100.00;96337.50;6188625;23;20527;-81
2022/10/14 07:17:18;;;;;;;24.77;17.93;;;;;;;10.34;100.00;96360.56;6189560;23;20917;-81
2022/10/14 07:19:45;;;;;;;22.00;19.50;;;;;;;10.41;100.00;96370.59;6188382;23;20440;-81
2022/10/14 07:22:12;;;;;;;24.90;17.13;;;;;;;10.28;100.00;96367.13;6188955;23;20447;-81
2022/10/14 07:24:39;;;;;;;24.10;19.53;;;;;;;10.48;100.00;96373.50;6161067;23;20392;-80
2022/10/14 07:27:08;;;;;;;24.73;17.73;;;;;;;10.63;100.00;96396.69;6185181;23;20403;-81
2022/10/14 07:29:35;;;;;;;20.97;17.47;;;;;;;10.46;100.00;96377.56;6184363;23;20770;-81
2022/10/14 07:32:02;;;;;;;22.43;16.70;;;;;;;10.59;100.00;96390.50;6164387;23;20391;-81
2022/10/14 07:34:30;;;;;;;20.33;18.23;;;;;;;10.63;100.00;96390.63;6163976;23;20498;-81
2022/10/14 07:36:56;;;;;;;20.60;17.47;;;;;;;10.38;100.00;96352.75;6164435;23;20411;-81
2022/10/14 07:39:24;;;;;;;19.37;17.07;;;;;;;10.19;100.00;96318.06;6188766;23;20404;-81
2022/10/14 07:41:51;;;;;;;21.60;18.07;;;;;;;10.05;100.00;96289.28;6188786;23;20392;-81
2022/10/14 07:44:19;;;;;;;26.50;21.07;;;;;;;10.62;100.00;96376.63;6189848;23;20400;-81
2022/10/14 07:46:52;;;;;;;25.77;19.37;;;;;;;10.91;100.00;96401.41;6141774;23;20412;-81
2022/10/14 07:49:22;;;;;;;25.63;18.53;;;;;;;10.66;100.00;96359.03;6165687;23;20486;-82
2022/10/14 07:51:49;;;;;;;22.57;17.50;;;;;;;10.94;100.00;96393.59;6187015;23;20412;-82
2022/10/14 07:54:21;;;;;;;26.43;18.57;;;;;;;10.86;100.00;96383.13;6186753;23;20439;-81
2022/10/14 07:56:48;;;;;;;23.57;17.77;;;;;;;10.45;100.00;96302.00;6162239;23;20463;-81
2022/10/14 07:59:18;;;;;;;19.00;15.40;;;;;;;10.85;100.00;96363.84;6187519;23;20431;-82
2022/10/14 08:01:46;;;;;;;20.83;16.57;;;;;;;10.92;100.00;96366.69;6164148;23;20400;-82
2022/10/14 08:04:13;;;;;;;23.43;16.60;;;;;;;11.09;100.00;96380.88;6163104;23;20396;-82
2022/10/14 08:06:40;;;;;;;18.93;15.23;;;;;;;11.03;100.00;96358.34;6189278;23;20448;-82
2022/10/14 08:09:09;;;;;;;18.37;16.33;;;;;;;11.34;100.00;96400.97;6188877;23;20420;-82
2022/10/14 08:11:36;;;;;;;18.63;15.53;;;;;;;11.33;100.00;96396.78;6187515;23;20399;-81
2022/10/14 08:14:04;;;;;;;18.17;15.87;;;;;;;11.49;100.00;96412.81;6160983;23;20563;-81
2022/10/14 08:16:33;;;;;;;20.00;16.67;;;;;;;11.27;100.00;96370.88;6188128;23;20439;-81
2022/10/14 08:19:03;;;;;;;19.57;17.50;;;;;;;11.56;100.00;96410.38;6190280;23;20456;-81
2022/10/14 08:21:32;;;;;;;18.00;14.80;;;;;;;11.43;100.00;96395.59;6189423;23;20396;-81
2022/10/14 08:24:00;;;;;;;20.73;15.47;;;;;;;11.29;100.00;96381.91;6164589;23;20439;-81
2022/10/14 08:26:31;;;;;;;22.83;17.17;;;;;;;11.58;100.00;96413.47;6164960;23;20414;-81
2022/10/14 08:29:02;;;;;;;21.20;15.63;;;;;;;11.41;100.00;96373.97;6160687;23;20436;-81
2022/10/14 08:31:30;;;;;;;19.57;16.50;;;;;;;11.05;100.00;96327.81;6163046;23;20399;-81
2022/10/14 08:33:58;;;;;;;17.30;15.43;;;;;;;11.49;100.00;96402.22;6187669;23;20432;-81
2022/10/14 08:36:25;;;;;;;18.10;14.10;;;;;;;11.34;100.00;96384.31;6187713;23;20411;-81
2022/10/14 08:38:53;;;;;;;21.90;15.77;;;;;;;11.62;100.00;96413.56;6186746;23;20427;-81
2022/10/14 08:41:49;;;;;;;18.60;15.93;;;;;;;11.66;100.00;96409.94;6187389;23;20423;-81
2022/10/14 08:44:22;;;;;;;16.33;14.10;;;;;;;11.73;100.00;96415.47;6162227;23;20407;-81
2022/10/14 08:46:54;;;;;;;18.40;14.60;;;;;;;11.87;100.00;96415.16;6186998;23;20404;-81
2022/10/14 08:49:24;;;;;;;18.57;15.13;;;;;;;11.90;100.00;96422.47;6185986;23;20836;-81
2022/10/14 08:52:02;;;;;;;19.57;15.27;;;;;;;11.92;100.00;96416.84;6186749;23;20439;-81
2022/10/14 08:54:43;;;;;;;21.13;16.00;;;;;;;11.64;100.00;96372.44;6186311;23;20506;-81
2022/10/14 08:57:22;;;;;;;15.93;14.13;;;;;;;11.99;100.00;96414.38;6165797;23;20686;-82
2022/10/14 08:59:50;;;;;;;20.37;16.27;;;;;;;11.69;100.00;96355.53;6139458;23;20502;-82
2022/10/14 09:02:36;;;;;;;20.50;14.27;;;;;;;12.14;100.00;96411.81;6185869;23;20420;-82
2022/10/14 09:05:04;;;;;;;21.53;14.03;;;;;;;12.31;100.00;96413.47;6163763;23;20495;-82
2022/10/14 09:07:35;;;;;;;18.77;14.87;;;;;;;12.42;100.00;96419.84;6162685;23;20495;-82
2022/10/14 09:10:06;;;;;;;22.70;14.27;;;;;;;12.42;100.00;96419.84;6161190;23;20420;-81
2022/10/14 09:12:34;;;;;;;17.90;15.10;;;;;;;12.20;100.00;96369.97;6184002;23;20404;-82
2022/10/14 09:15:12;;;;;;;23.33;15.07;;;;;;;12.60;100.00;96420.34;6183369;23;20427;-82
2022/10/14 09:17:45;;;;;;;21.17;18.97;;;;;;;12.64;100.00;96404.53;6157329;23;20394;-82
2022/10/14 09:20:23;;;;;;;19.63;15.10;;;;;;;12.14;100.00;96312.97;6158776;23;20427;-82
2022/10/14 09:23:02;;;;;;;21.97;15.20;;;;;;;12.75;100.00;96408.25;6182048;23;21359;-82
2022/10/14 09:25:32;;;;;;;21.63;16.97;;;;;;;12.80;100.00;96401.91;6182556;23;20369;-81
2022/10/14 09:27:59;;;;;;;17.33;15.20;;;;;;;12.74;100.00;96401.41;6182791;23;20466;-81
2022/10/14 09:30:34;;;;;;;21.70;15.10;;;;;;;12.58;100.00;96395.28;6182572;23;20424;-80
2022/10/14 09:33:03;;;;;;;23.60;14.93;;;;;;;12.03;100.00;96301.34;6132551;23;20408;-81
2022/10/14 09:35:34;;;;;;;15.73;14.10;;;;;;;12.54;100.00;96379.25;6181028;23;20500;-78
2022/10/14 09:38:01;;;;;;;15.57;13.63;;;;;;;12.64;100.00;96393.91;6180885;23;20408;-78
2022/10/14 09:40:41;;;;;;;17.53;13.40;;;;;;;12.02;100.00;96305.06;6158159;23;20435;-79
2022/10/14 09:43:08;;;;;;;15.90;14.20;;;;;;;12.63;100.00;96405.63;6180208;23;20849;-79
2022/10/14 09:46:09;;;;;;;19.77;13.60;;;;;;;12.66;100.00;96402.31;6179974;23;20404;-79
2022/10/14 09:48:51;;;;;;;16.63;13.30;;;;;;;12.69;100.00;96393.69;6179946;23;20439;-79
2022/10/14 09:51:25;;;;;;;20.23;15.20;;;;;;;12.72;100.00;96398.31;6155218;23;20730;-78
2022/10/14 09:53:54;;;;;;;16.50;12.90;;;;;;;12.61;100.00;96384.75;6179264;23;20407;-79
2022/10/14 09:56:35;;;;;;;17.20;13.60;;;;;;;12.64;100.00;96383.31;6178537;23;20408;-79
2022/10/14 09:59:21;;;;;;;20.77;14.17;;;;;;;12.74;100.00;96377.53;6178175;23;20423;-79
2022/10/14 10:01:56;;;;;;;17.40;13.83;;;;;;;12.83;100.00;96401.28;6178510;23;20502;-79
2022/10/14 10:04:56;;;;;;;14.10;12.03;;;;;;;12.91;100.00;96390.47;6178856;23;20434;-79
2022/10/14 10:07:31;;;;;;;14.87;11.93;;;;;;;12.89;100.00;96398.03;6090476;23;20404;-79
2022/10/14 10:10:03;;;;;;;15.43;13.87;;;;;;;12.95;100.00;96402.00;6158891;23;20461;-81
2022/10/14 10:12:30;;;;;;;17.83;14.47;;;;;;;12.97;100.00;96394.47;6156978;23;20404;-81
2022/10/14 10:15:02;;;;;;;16.73;11.90;;;;;;;12.79;100.00;96358.69;6179845;23;20494;-80
2022/10/14 10:17:34;;;;;;;16.03;14.27;;;;;;;12.37;100.00;96278.78;6182445;23;20407;-81
2022/10/14 10:20:14;;;;;;;13.53;12.13;;;;;;;13.37;100.00;96388.28;6186036;23;20428;-81
2022/10/14 10:22:42;;;;;;;13.73;12.33;;;;;;;13.49;100.00;96364.28;6185999;23;20791;-81
2022/10/14 10:25:08;;;;;;;15.57;12.77;;;;;;;13.80;100.00;96386.63;6160733;23;20392;-81
2022/10/14 10:27:40;;;;;;;19.27;13.33;;;;;;;13.47;100.00;96336.50;6163368;23;20404;-82
2022/10/14 10:30:13;;;;;;;16.70;13.07;;;;;;;13.89;100.00;96382.69;6166948;23;20431;-82
2022/10/14 10:32:50;;;;;;;20.93;15.70;;;;;;;13.80;100.00;96360.81;6166748;23;20405;-82
2022/10/14 10:35:30;;;;;;;19.30;14.07;;;;;;;13.72;100.00;96337.09;6191294;23;20423;-81
2022/10/14 10:38:11;;;;;;;22.17;13.70;;;;;;;14.13;100.00;96367.59;6163304;23;20404;-82
2022/10/14 10:41:23;;;;;;;17.17;13.10;;;;;;;13.95;100.00;96340.66;6186236;23;20400;-81
2022/10/14 10:44:02;;;;;;;13.50;11.40;;;;;;;14.35;100.00;96360.84;6131911;23;20400;-81
2022/10/14 10:46:32;;;;;;;17.43;12.73;;;;;;;14.04;100.00;96359.06;6186914;23;20371;-81
2022/10/14 10:49:14;;;;;;;15.43;12.20;;;;;;;13.98;100.00;96352.47;6185617;23;20808;-82
2022/10/14 10:51:57;;;;;;;15.13;11.67;;;;;;;14.04;100.00;96327.16;6185891;23;20423;-81
2022/10/14 10:54:34;;;;;;;12.20;11.00;;;;;;;14.34;100.00;96346.00;6162318;23;20467;-82
2022/10/14 10:57:12;;;;;;;11.47;9.77;;;;;;;14.10;100.00;96307.91;6162688;23;20687;-82
2022/10/14 10:59:59;;;;;;;13.53;9.90;;;;;;;14.28;100.00;96320.78;6164098;23;20426;-82
2022/10/14 11:02:43;;;;;;;13.37;11.90;;;;;;;14.38;100.00;96331.66;6161615;23;20388;-81
2022/10/14 11:05:32;;;;;;;14.03;12.00;;;;;;;14.35;100.00;96337.69;6184839;23;20391;-82
2022/10/14 11:14:34;;;;;;;10.93;8.80;;;;;;;14.51;100.00;96329.66;6189629;23;20403;-82
2022/10/14 11:17:25;;;;;;;18.50;10.20;;;;;;;14.55;100.00;96327.81;6163388;23;20465;-81
2022/10/14 11:20:16;;;;;;;9.97;8.83;;;;;;;14.52;100.00;96330.41;6189894;23;20503;-82
2022/10/14 11:22:49;;;;;;;12.60;8.53;;;;;;;14.70;100.00;96331.53;6164289;23;20483;-81
2022/10/14 11:25:32;;;;;;;12.37;9.00;;;;;;;14.65;100.00;96321.94;6163145;23;20396;-82
2022/10/14 11:28:14;;;;;;;10.23;7.53;;;;;;;14.68;100.00;96321.22;6138678;23;20388;-81
2022/10/14 11:30:52;;;;;;;8.67;7.43;;;;;;;14.34;100.00;96280.28;6163047;23;20407;-81
2022/10/14 11:33:21;;;;;;;10.47;7.10;;;;;;;14.48;100.00;96311.72;6189438;23;20423;-81
2022/10/14 11:36:04;;;;;;;8.47;6.93;;;;;;;14.55;100.00;96311.84;6165341;23;20427;-81
2022/10/14 11:38:48;;;;;;;8.80;7.47;;;;;;;14.08;100.00;96226.97;6187371;23;20777;-82
2022/10/14 11:41:33;;;;;;;10.30;7.93;;;;;;;14.85;100.00;96317.38;6165126;23;20850;-82
2022/10/14 11:44:13;;;;;;;11.90;8.10;;;;;;;14.46;100.00;96256.22;6163250;23;20400;-82